Time;durP1;ratioP1;P1;durP2;ratioP2;P2;SDS_P1;SDS_P2;PMS_P1;PMS_P2;Temp;Humidity;BMP_temperature;BMP_pressure;BME280_temperature;BME280_humidity;BME280_pressure;Samples;Min_cycle;Max_cycle;Signal;HPM_P1;HPM_P2
2023/05/04 04:47:16;;;;;;;10.90;3.80;;;;;;;10.17;76.04;100976.55;108090;1278;22530;-49
2023/05/04 04:49:43;;;;;;;5.80;3.10;;;;;;;10.33;75.08;100979.73;107119;1273;22532;-46
2023/05/04 04:52:10;;;;;;;6.30;3.50;;;;;;;10.43;73.91;100977.58;108098;1280;22499;-47
2023/05/04 04:54:38;;;;;;;4.20;3.20;;;;;;;10.50;73.81;100978.19;108626;1275;22210;-56
2023/05/04 04:57:05;;;;;;;5.40;2.80;;;;;;;10.61;73.80;100973.59;109509;1279;23388;-57
2023/05/04 04:59:32;;;;;;;4.60;2.60;;;;;;;10.76;72.96;100974.79;108957;1278;24207;-58
2023/05/04 05:01:59;;;;;;;3.10;2.20;;;;;;;10.93;71.86;100973.56;109760;1280;22915;-57
2023/05/04 05:04:26;;;;;;;3.90;2.30;;;;;;;11.11;71.19;100976.52;108379;1279;22283;-57
2023/05/04 05:06:53;;;;;;;3.70;2.00;;;;;;;11.27;69.90;100979.80;109257;1273;22926;-57
2023/05/04 05:09:20;;;;;;;7.60;2.60;;;;;;;11.43;69.02;100975.55;109761;1280;22395;-57
2023/05/04 05:11:47;;;;;;;3.10;1.70;;;;;;;11.59;67.90;100978.27;109484;1273;22521;-56
2023/05/04 05:14:14;;;;;;;4.20;1.70;;;;;;;11.73;66.81;100982.56;109540;1279;22691;-56
2023/05/04 05:16:41;;;;;;;3.40;1.60;;;;;;;11.86;65.66;100987.58;109678;1278;22476;-48
2023/05/04 05:19:08;;;;;;;7.50;1.70;;;;;;;11.96;64.89;100989.19;109502;1275;22311;-49
2023/05/04 05:21:35;;;;;;;3.70;2.10;;;;;;;12.01;63.97;100986.61;109576;1276;23399;-50
2023/05/04 05:24:02;;;;;;;8.70;2.90;;;;;;;12.03;64.62;100988.02;109683;1276;24055;-48
2023/05/04 05:26:30;;;;;;;6.00;1.90;;;;;;;12.06;64.20;100984.18;109479;1273;260308;-48
2023/05/04 05:28:58;;;;;;;9.40;2.10;;;;;;;12.11;64.36;100984.21;109565;1273;23263;-48
2023/05/04 05:31:26;;;;;;;2.60;2.00;;;;;;;12.17;64.02;100984.23;109375;1279;22807;-58
2023/05/04 05:33:58;;;;;;;6.00;1.90;;;;;;;12.23;63.56;100979.17;109308;1273;22656;-47
2023/05/04 05:37:07;;;;;;;3.90;1.80;;;;;;;12.31;64.68;100981.66;108639;1279;22582;-48
2023/05/04 05:52:43;;;;;;;5.20;1.40;;;;;;;12.96;61.78;100966.93;108661;1278;22535;-50
2023/05/04 05:56:40;;;;;;;3.40;2.20;;;;;;;13.20;61.19;100965.39;109007;1273;22550;-52
2023/05/04 06:00:15;;;;;;;3.90;2.20;;;;;;;13.59;61.49;100962.90;109270;1273;22572;-62
2023/05/04 06:02:50;;;;;;;3.00;1.80;;;;;;;13.85;60.95;100960.58;108238;1273;22527;-58
2023/05/04 06:05:18;;;;;;;4.40;2.10;;;;;;;14.02;58.82;100965.08;108735;1273;22281;-56
2023/05/04 06:07:47;;;;;;;6.70;2.00;;;;;;;14.15;58.12;100963.10;108026;1273;22958;-60
2023/05/04 06:10:15;;;;;;;3.20;1.70;;;;;;;14.27;57.56;100961.13;109696;1278;22287;-47
2023/05/04 06:12:42;;;;;;;2.60;1.90;;;;;;;14.39;56.78;100960.19;108910;1273;22949;-50
2023/05/04 06:18:54;;;;;;;6.80;2.30;;;;;;;14.62;55.08;100957.27;108820;1275;25390;-58
2023/05/04 06:21:48;;;;;;;3.10;1.90;;;;;;;14.77;55.76;100958.77;108885;1278;22567;-59
2023/05/04 06:25:14;;;;;;;3.70;2.50;;;;;;;14.95;54.57;100960.73;108729;1272;23036;-48
2023/05/04 06:31:46;;;;;;;4.40;3.10;;;;;;;15.26;52.66;100953.64;109306;1273;23944;-57
2023/05/04 06:34:38;;;;;;;5.20;2.50;;;;;;;15.46;52.02;100949.06;109524;1274;23637;-57
2023/05/04 06:37:06;;;;;;;5.70;2.60;;;;;;;15.58;51.52;100949.12;108971;1273;22588;-47
2023/05/04 06:39:35;;;;;;;5.80;2.70;;;;;;;15.65;50.64;100944.68;109307;1278;22402;-58
2023/05/04 06:42:14;;;;;;;5.40;2.20;;;;;;;15.73;50.13;100941.23;109690;1279;23085;-58
2023/05/04 06:44:53;;;;;;;4.80;2.50;;;;;;;15.84;48.79;100944.98;109600;1279;22481;-57
2023/05/04 06:47:20;;;;;;;2.90;1.90;;;;;;;15.92;47.03;100948.42;109634;1279;22390;-57
2023/05/04 06:49:50;;;;;;;2.60;2.00;;;;;;;15.95;47.47;100946.81;109624;1273;22948;-56
2023/05/04 06:52:17;;;;;;;3.40;1.80;;;;;;;16.04;47.60;100945.64;108705;1279;22275;-57
2023/05/04 06:54:45;;;;;;;5.00;2.10;;;;;;;16.11;47.29;100948.55;108897;1273;22506;-57
2023/05/04 06:57:18;;;;;;;4.50;2.60;;;;;;;16.15;47.63;100947.96;109733;1279;22729;-58
2023/05/04 06:59:45;;;;;;;4.90;2.50;;;;;;;16.21;47.11;100948.42;108798;1274;22496;-47
2023/05/04 07:02:12;;;;;;;3.40;1.90;;;;;;;16.33;47.30;100943.34;109243;1276;22909;-49
2023/05/04 07:04:40;;;;;;;4.50;2.30;;;;;;;16.51;48.11;100943.98;109509;1279;22285;-56
2023/05/04 07:07:26;;;;;;;4.00;2.40;;;;;;;16.66;46.93;100940.23;109231;1279;23085;-58
2023/05/04 07:10:36;;;;;;;3.20;2.40;;;;;;;16.81;46.36;100937.92;108822;1275;23314;-57
2023/05/04 07:13:49;;;;;;;3.20;2.10;;;;;;;16.93;46.53;100938.79;109740;1277;22351;-58
2023/05/04 07:25:21;;;;;;;3.80;2.20;;;;;;;17.06;44.81;100942.98;109384;1275;22360;-47
2023/05/04 07:27:54;;;;;;;3.90;2.30;;;;;;;17.02;45.66;100946.73;109549;1273;22885;-57
2023/05/04 07:30:44;;;;;;;4.20;2.20;;;;;;;16.99;44.91;100943.09;108981;1273;22523;-48
2023/05/04 07:33:18;;;;;;;4.20;1.90;;;;;;;16.94;45.39;100944.60;108306;1274;22528;-48
2023/05/04 07:35:46;;;;;;;5.50;2.10;;;;;;;16.95;46.10;100944.91;108771;1279;24628;-58
2023/05/04 07:38:13;;;;;;;5.20;2.20;;;;;;;17.02;46.31;100950.27;109059;1276;22635;-47
2023/05/04 07:40:40;;;;;;;4.80;2.10;;;;;;;17.11;45.74;100953.65;109599;1275;22364;-50
2023/05/04 07:43:08;;;;;;;4.30;2.20;;;;;;;17.15;45.33;100947.23;109825;1279;22201;-47
2023/05/04 07:45:36;;;;;;;4.10;2.20;;;;;;;17.21;45.57;100946.79;108824;1279;23770;-56
2023/05/04 07:48:03;;;;;;;8.90;1.90;;;;;;;17.27;45.17;100942.27;108163;1279;22242;-57
2023/05/04 07:50:37;;;;;;;4.30;2.00;;;;;;;17.32;44.23;100943.23;109662;1279;22477;-58
2023/05/04 07:53:05;;;;;;;4.90;2.20;;;;;;;17.30;44.33;100939.41;109388;1279;23231;-58
2023/05/04 07:55:35;;;;;;;2.50;2.30;;;;;;;17.33;45.13;100935.64;109387;1279;22365;-48
2023/05/04 07:58:02;;;;;;;6.40;2.00;;;;;;;17.42;44.88;100939.36;108535;1273;23218;-48
2023/05/04 08:00:31;;;;;;;4.70;2.30;;;;;;;17.51;43.88;100941.13;109218;1279;22523;-56
2023/05/04 08:03:05;;;;;;;5.10;2.40;;;;;;;17.59;44.39;100938.36;108440;1279;23224;-56
2023/05/04 08:05:45;;;;;;;4.90;1.90;;;;;;;17.71;44.45;100937.95;109296;1273;22685;-49
2023/05/04 08:08:25;;;;;;;4.70;1.70;;;;;;;17.84;44.38;100931.38;109212;1279;25418;-56
2023/05/04 08:11:13;;;;;;;4.50;1.80;;;;;;;17.98;43.10;100929.67;108522;1279;22422;-47
2023/05/04 08:13:48;;;;;;;4.60;1.70;;;;;;;18.06;43.41;100928.44;109465;1279;22567;-57
2023/05/04 08:16:18;;;;;;;3.20;2.00;;;;;;;18.14;42.98;100920.86;108986;1275;23436;-58
2023/05/04 08:18:52;;;;;;;3.80;1.80;;;;;;;18.21;43.39;100920.18;108550;1279;22645;-48
2023/05/04 08:21:19;;;;;;;1.40;1.20;;;;;;;18.29;42.60;100918.77;109083;1267;22269;-57
2023/05/04 08:23:47;;;;;;;4.00;1.90;;;;;;;18.36;43.46;100919.33;108938;1279;22816;-46
2023/05/04 08:26:14;;;;;;;5.50;1.70;;;;;;;18.41;42.32;100914.45;109513;1275;22396;-57
2023/05/04 08:28:41;;;;;;;3.00;1.70;;;;;;;18.43;41.83;100909.61;109250;1279;22321;-57
2023/05/04 08:31:10;;;;;;;2.50;1.60;;;;;;;18.48;42.77;100909.00;109550;1273;22536;-57
2023/05/04 08:33:38;;;;;;;5.20;1.50;;;;;;;18.60;42.05;100910.15;109322;1278;22583;-57
2023/05/04 08:36:07;;;;;;;3.20;1.70;;;;;;;18.66;40.75;100905.58;108588;1276;22404;-58
2023/05/04 08:38:34;;;;;;;3.00;1.80;;;;;;;18.66;41.89;100911.75;109099;1279;22530;-49
2023/05/04 08:41:05;;;;;;;5.10;1.50;;;;;;;18.68;41.39;100909.64;109363;1278;22369;-47
2023/05/04 08:43:35;;;;;;;3.20;1.90;;;;;;;18.70;42.00;100901.81;109439;1274;22345;-48
2023/05/04 08:46:05;;;;;;;2.60;2.00;;;;;;;18.80;41.86;100905.96;109307;1276;22210;-48
2023/05/04 08:48:36;;;;;;;3.10;1.60;;;;;;;18.97;41.28;100905.38;108879;1273;25268;-48
2023/05/04 08:51:03;;;;;;;6.60;2.00;;;;;;;19.06;40.07;100902.14;109475;1272;23245;-58
2023/05/04 08:53:30;;;;;;;2.10;1.40;;;;;;;19.10;40.55;100898.70;109342;1273;23685;-57
2023/05/04 08:56:02;;;;;;;7.10;1.60;;;;;;;19.18;39.84;100899.54;108180;1274;23366;-57
2023/05/04 08:58:36;;;;;;;2.10;1.30;;;;;;;19.33;39.71;100898.43;108839;1279;23245;-48
2023/05/04 09:01:05;;;;;;;2.80;1.80;;;;;;;19.45;39.09;100888.93;109386;1277;22361;-58
2023/05/04 09:03:33;;;;;;;1.60;1.50;;;;;;;19.49;38.64;100877.87;109572;1280;23465;-48
2023/05/04 09:06:38;;;;;;;1.90;1.50;;;;;;;19.50;39.34;100874.27;108945;1259;22306;-47
2023/05/04 09:12:49;;;;;;;2.60;1.60;;;;;;;19.81;39.51;100863.16;109680;1277;22541;-57
2023/05/04 09:15:22;;;;;;;3.40;1.60;;;;;;;20.01;39.76;100856.55;109501;1273;22493;-56
2023/05/04 09:18:05;;;;;;;2.30;1.50;;;;;;;20.26;39.78;100857.05;109624;1279;23034;-56
2023/05/04 09:20:43;;;;;;;3.00;1.30;;;;;;;20.55;37.59;100855.60;109669;1276;22364;-57
2023/05/04 09:23:10;;;;;;;3.80;1.20;;;;;;;20.75;36.82;100854.60;109493;1274;22431;-57
2023/05/04 09:25:47;;;;;;;4.60;2.90;;;;;;;20.84;36.37;100845.60;109478;1273;22880;-47
2023/05/04 09:28:15;;;;;;;5.40;1.40;;;;;;;20.86;35.31;100846.06;109755;1281;23149;-47
2023/05/04 09:30:42;;;;;;;2.90;1.50;;;;;;;20.81;35.82;100844.30;109456;1279;23105;-47
2023/05/04 09:33:12;;;;;;;4.00;1.40;;;;;;;20.80;35.55;100840.95;109050;1280;22640;-47
2023/05/04 09:35:45;;;;;;;14.60;2.00;;;;;;;20.86;35.70;100839.17;108695;1273;24585;-56
2023/05/04 09:38:28;;;;;;;4.30;1.70;;;;;;;20.90;35.53;100834.23;108823;1276;22326;-47
2023/05/04 09:40:55;;;;;;;5.70;1.60;;;;;;;20.88;35.81;100833.06;109383;1277;22142;-58
2023/05/04 09:43:23;;;;;;;3.10;1.70;;;;;;;20.93;35.55;100830.60;108899;1276;22661;-57
2023/05/04 09:45:50;;;;;;;3.30;1.50;;;;;;;20.91;34.22;100831.38;109281;1280;22180;-57
2023/05/04 09:48:24;;;;;;;6.50;1.20;;;;;;;20.83;34.67;100826.86;109703;1279;22392;-47
2023/05/04 09:50:56;;;;;;;2.40;1.20;;;;;;;20.80;34.40;100823.59;109409;1276;22389;-47
2023/05/04 09:53:24;;;;;;;6.30;3.30;;;;;;;20.82;34.31;100822.47;109587;1279;22318;-47
2023/05/04 09:56:13;;;;;;;6.40;1.60;;;;;;;20.89;34.13;100824.70;109587;1277;22349;-47
2023/05/04 09:58:40;;;;;;;1.80;1.40;;;;;;;20.91;34.33;100825.34;109716;1279;22412;-57
2023/05/04 10:01:07;;;;;;;2.70;1.30;;;;;;;20.95;34.59;100821.28;109544;1279;22276;-58
2023/05/04 10:03:34;;;;;;;6.40;3.00;;;;;;;21.03;33.48;100820.85;109737;1273;22365;-59
2023/05/04 10:06:03;;;;;;;15.00;2.80;;;;;;;21.10;33.84;100820.09;109803;1278;22878;-57
2023/05/04 10:08:33;;;;;;;32.80;16.90;;;;;;;21.19;33.51;100821.16;109741;1279;22428;-58
2023/05/04 10:11:00;;;;;;;8.00;4.70;;;;;;;21.28;33.72;100817.48;109430;1279;22507;-58
2023/05/04 10:17:26;;;;;;;2.10;1.00;;;;;;;21.33;32.98;100812.89;109893;1279;22655;-59
2023/05/04 10:20:24;;;;;;;1.40;1.20;;;;;;;21.31;32.94;100808.52;109621;1275;22885;-57
2023/05/04 10:22:57;;;;;;;0.90;0.80;;;;;;;21.38;33.48;100804.20;109616;1276;25343;-58
2023/05/04 10:25:43;;;;;;;4.50;1.90;;;;;;;21.65;32.81;100805.85;109768;1279;22372;-58
2023/05/04 10:28:24;;;;;;;3.80;1.70;;;;;;;21.99;33.43;100796.02;109689;1274;22766;-57
2023/05/04 10:30:57;;;;;;;8.00;1.30;;;;;;;22.24;31.88;100792.20;109791;1273;22381;-56
2023/05/04 10:33:25;;;;;;;6.00;1.30;;;;;;;22.28;31.62;100787.60;109730;1273;22449;-46
2023/05/04 10:35:52;;;;;;;2.90;1.60;;;;;;;22.39;31.54;100793.38;109827;1279;22274;-48
2023/05/04 10:38:31;;;;;;;2.00;1.20;;;;;;;22.56;31.42;100795.14;109357;1276;22665;-56
2023/05/04 10:40:58;;;;;;;6.30;1.30;;;;;;;23.02;31.21;100792.52;109649;1273;23119;-56
2023/05/04 10:43:27;;;;;;;2.40;1.10;;;;;;;23.58;30.39;100785.71;109700;1279;22456;-55
2023/05/04 10:45:56;;;;;;;3.70;1.20;;;;;;;24.12;29.55;100784.23;109811;1273;24051;-56
2023/05/04 10:48:33;;;;;;;5.50;1.10;;;;;;;24.33;28.54;100787.34;109848;1273;22225;-56
2023/05/04 10:51:00;;;;;;;3.10;1.10;;;;;;;24.35;28.68;100782.61;109893;1273;22383;-57
2023/05/04 10:53:31;;;;;;;4.20;1.30;;;;;;;24.40;27.70;100787.71;109893;1279;22867;-57
2023/05/04 10:55:58;;;;;;;4.60;1.10;;;;;;;24.49;28.59;100779.96;109337;1275;22142;-48
2023/05/04 10:58:29;;;;;;;6.30;1.20;;;;;;;24.69;28.27;100778.05;109834;1279;22265;-47
2023/05/04 11:00:56;;;;;;;7.20;1.10;;;;;;;24.94;26.64;100774.61;109778;1273;22675;-48
2023/05/04 11:03:23;;;;;;;2.00;0.90;;;;;;;24.96;26.76;100772.90;109890;1279;22918;-48
2023/05/04 11:05:53;;;;;;;3.50;1.20;;;;;;;24.82;27.30;100774.38;109800;1277;22245;-48
2023/05/04 11:08:24;;;;;;;5.40;1.10;;;;;;;24.49;27.68;100773.35;109795;1278;22922;-49
2023/05/04 11:11:05;;;;;;;4.50;1.00;;;;;;;24.11;28.13;100779.50;109790;1279;23709;-48
2023/05/04 11:13:33;;;;;;;2.50;1.00;;;;;;;23.74;28.45;100776.80;109883;1272;22453;-49
2023/05/04 11:16:00;;;;;;;2.40;0.80;;;;;;;23.59;28.79;100771.08;109855;1279;22858;-48
2023/05/04 11:18:36;;;;;;;4.00;1.60;;;;;;;23.53;28.70;100768.11;109878;1279;22671;-47
2023/05/04 11:21:03;;;;;;;3.50;1.40;;;;;;;23.55;29.37;100762.86;109753;1279;22403;-48
2023/05/04 11:23:30;;;;;;;2.80;0.70;;;;;;;23.69;29.15;100758.50;109858;1279;22270;-47
2023/05/04 11:25:57;;;;;;;6.80;1.50;;;;;;;23.87;28.56;100755.70;109718;1279;22624;-48
2023/05/04 11:28:34;;;;;;;3.50;1.00;;;;;;;23.93;28.83;100750.06;109785;1279;22401;-50
2023/05/04 11:31:14;;;;;;;4.80;1.40;;;;;;;23.85;28.44;100750.30;109848;1279;22460;-48
2023/05/04 11:33:50;;;;;;;6.40;1.00;;;;;;;23.72;28.73;100745.58;109926;1279;22148;-48
2023/05/04 11:36:17;;;;;;;1.10;0.80;;;;;;;23.80;29.29;100740.72;109916;1279;22610;-49
2023/05/04 11:38:44;;;;;;;1.80;0.90;;;;;;;23.91;28.61;100738.25;109860;1279;22245;-48
2023/05/04 11:41:11;;;;;;;2.70;0.90;;;;;;;23.91;28.33;100736.66;109911;1279;22470;-57
2023/05/04 11:43:40;;;;;;;4.00;1.00;;;;;;;23.77;28.02;100734.66;109932;1279;22207;-57
2023/05/04 11:46:07;;;;;;;5.30;1.70;;;;;;;23.60;28.39;100734.55;109903;1279;22152;-56
2023/05/04 11:48:35;;;;;;;5.10;1.00;;;;;;;23.49;28.70;100730.95;109877;1279;22281;-56
2023/05/04 11:51:02;;;;;;;3.60;1.00;;;;;;;23.48;28.80;100723.36;109978;1279;22197;-57
2023/05/04 11:53:37;;;;;;;5.00;1.10;;;;;;;23.50;29.28;100722.36;110052;1279;22719;-56
2023/05/04 11:56:05;;;;;;;2.20;1.40;;;;;;;23.47;28.09;100717.86;109281;1279;25281;-56
2023/05/04 11:58:32;;;;;;;6.20;1.10;;;;;;;23.30;28.33;100717.58;109015;1279;22765;-58
2023/05/04 12:00:59;;;;;;;2.50;1.20;;;;;;;23.19;28.66;100717.54;109886;1279;22184;-57
2023/05/04 12:03:27;;;;;;;1.60;1.00;;;;;;;23.19;28.44;100711.35;109211;1279;22937;-56
2023/05/04 12:06:14;;;;;;;5.70;1.40;;;;;;;23.20;28.34;100702.20;107501;1279;22944;-57
2023/05/04 12:08:41;;;;;;;7.10;1.60;;;;;;;23.23;27.89;100700.11;109977;1279;22273;-55
2023/05/04 12:11:15;;;;;;;13.20;2.00;;;;;;;23.23;27.53;100698.69;109949;1279;22492;-57
2023/05/04 12:13:43;;;;;;;3.00;1.10;;;;;;;23.21;27.63;100698.77;109965;1279;22382;-57
2023/05/04 12:16:20;;;;;;;5.30;1.60;;;;;;;23.22;27.36;100692.35;110047;1279;22780;-57
2023/05/04 12:18:47;;;;;;;4.70;1.50;;;;;;;23.21;28.17;100694.19;109921;1277;22937;-57
2023/05/04 12:21:18;;;;;;;2.20;1.00;;;;;;;23.15;27.24;100691.24;109652;1279;25268;-57
2023/05/04 12:23:46;;;;;;;3.30;1.00;;;;;;;23.05;27.43;100689.91;107799;1279;25380;-56
2023/05/04 12:26:13;;;;;;;2.20;0.80;;;;;;;22.95;27.99;100689.86;107063;1279;22493;-56
2023/05/04 12:28:43;;;;;;;9.20;1.00;;;;;;;22.74;27.79;100690.39;109135;1279;25224;-56
2023/05/04 12:31:10;;;;;;;7.10;1.10;;;;;;;22.56;28.38;100684.41;107605;1279;25271;-57
2023/05/04 12:33:37;;;;;;;2.50;1.10;;;;;;;22.56;29.00;100680.14;107238;1279;24380;-57
2023/05/04 12:36:05;;;;;;;5.40;1.10;;;;;;;22.66;29.54;100673.48;109397;1279;22319;-57
2023/05/04 12:38:32;;;;;;;2.00;0.80;;;;;;;22.84;30.65;100676.23;110010;1279;22154;-57
2023/05/04 12:41:02;;;;;;;3.90;0.90;;;;;;;22.97;28.46;100668.42;109413;1279;22298;-56
2023/05/04 12:43:31;;;;;;;6.80;2.40;;;;;;;22.90;28.57;100668.35;110018;1279;22310;-57
2023/05/04 12:45:58;;;;;;;2.40;1.20;;;;;;;22.83;29.28;100661.35;109923;1280;22294;-57
2023/05/04 12:48:27;;;;;;;4.90;1.30;;;;;;;22.74;27.30;100663.02;109303;1279;22646;-56
2023/05/04 12:50:55;;;;;;;7.10;0.90;;;;;;;22.57;27.19;100657.00;107149;1279;22273;-57
2023/05/04 12:53:24;;;;;;;1.20;1.10;;;;;;;22.44;28.30;100658.81;110180;1279;22886;-57
2023/05/04 12:55:51;;;;;;;2.90;0.80;;;;;;;22.33;28.43;100656.98;110062;1279;22295;-56
2023/05/04 12:58:18;;;;;;;4.40;1.20;;;;;;;22.19;28.25;100656.52;110089;1279;22223;-55
2023/05/04 13:00:45;;;;;;;11.40;1.00;;;;;;;22.08;28.90;100651.65;109562;1279;23254;-56
2023/05/04 13:03:13;;;;;;;3.20;1.30;;;;;;;22.08;29.49;100647.72;110035;1279;22583;-57
2023/05/04 13:05:40;;;;;;;9.20;1.10;;;;;;;22.11;29.61;100645.66;110008;1279;22289;-57
2023/05/04 13:08:07;;;;;;;2.80;0.70;;;;;;;22.12;30.04;100642.46;107166;1279;22607;-56
2023/05/04 13:10:34;;;;;;;2.30;0.80;;;;;;;22.08;29.68;100643.98;108929;1279;22289;-56
2023/05/04 13:13:03;;;;;;;1.50;1.10;;;;;;;22.02;28.88;100640.13;109714;1279;22286;-57
2023/05/04 13:15:32;;;;;;;7.70;1.10;;;;;;;22.00;30.00;100635.95;107213;1279;24326;-57
2023/05/04 13:17:59;;;;;;;2.60;1.40;;;;;;;22.03;30.80;100633.36;107215;1278;25278;-57
